Time;durP1;ratioP1;P1;durP2;ratioP2;P2;SDS_P1;SDS_P2;PMS_P1;PMS_P2;Temp;Humidity;BMP_temperature;BMP_pressure;BME280_temperature;BME280_humidity;BME280_pressure;Samples;Min_cycle;Max_cycle;Signal;HPM_P1;HPM_P2
2022/11/12 00:01:17;;;;;;;95.60;18.00;;;5.30;72.90;;;;;;5090222;27;46403;-67
2022/11/12 00:03:43;;;;;;;60.37;15.20;;;5.30;72.70;;;;;;5083003;27;46440;-67
2022/11/12 00:06:08;;;;;;;71.90;15.20;;;5.30;72.70;;;;;;5083474;27;46435;-68
2022/11/12 00:08:35;;;;;;;66.57;15.53;;;5.30;72.70;;;;;;5081460;27;48631;-69
2022/11/12 00:11:03;;;;;;;70.83;14.83;;;5.40;71.50;;;;;;5083590;27;46390;-68
2022/11/12 00:13:29;;;;;;;72.17;14.70;;;5.40;72.60;;;;;;5084008;27;46675;-69
2022/11/12 00:15:55;;;;;;;85.97;16.20;;;5.40;72.50;;;;;;5085305;27;46448;-67
2022/11/12 00:18:20;;;;;;;89.37;16.27;;;5.40;72.50;;;;;;5084099;27;47467;-69
2022/11/12 00:20:46;;;;;;;117.43;15.90;;;5.40;72.60;;;;;;5086203;27;46009;-67
2022/11/12 00:23:12;;;;;;;130.50;16.40;;;5.40;71.80;;;;;;5085263;27;46385;-68
2022/11/12 00:25:37;;;;;;;98.10;16.40;;;5.30;73.10;;;;;;5081837;27;46638;-69
2022/11/12 00:28:05;;;;;;;105.17;16.40;;;5.40;73.30;;;;;;5087489;27;46501;-68
2022/11/12 00:30:31;;;;;;;119.10;14.97;;;5.40;73.10;;;;;;5086204;27;46669;-69
2022/11/12 00:32:56;;;;;;;102.20;15.13;;;5.40;72.10;;;;;;5083748;27;46008;-68
2022/11/12 00:35:22;;;;;;;58.87;13.90;;;5.40;73.20;;;;;;5085489;27;46015;-70
2022/11/12 00:37:53;;;;;;;112.60;14.50;;;5.30;73.40;;;;;;5087091;27;46272;-67
2022/11/12 00:40:19;;;;;;;92.20;12.23;;;5.30;73.90;;;;;;5081591;27;46355;-69
2022/11/12 00:42:45;;;;;;;107.30;13.87;;;5.10;72.70;;;;;;5083163;27;46375;-67
2022/11/12 00:45:10;;;;;;;81.93;14.73;;;5.20;73.90;;;;;;5085231;27;46003;-67
2022/11/12 00:47:36;;;;;;;87.23;14.20;;;5.20;73.90;;;;;;5084012;27;47501;-69
2022/11/12 00:50:01;;;;;;;67.43;15.13;;;5.20;73.90;;;;;;5085839;27;46411;-69
2022/11/12 00:52:27;;;;;;;70.77;13.80;;;5.20;72.80;;;;;;5081612;27;46671;-68
2022/11/12 00:54:52;;;;;;;60.00;13.63;;;5.20;73.90;;;;;;5087137;27;46383;-69
2022/11/12 00:57:18;;;;;;;56.97;13.33;;;5.20;73.90;;;;;;5083027;27;47771;-68
2022/11/12 00:59:44;;;;;;;53.03;14.20;;;5.20;73.80;;;;;;5084518;27;46497;-68
2022/11/12 01:02:09;;;;;;;42.20;13.47;;;5.30;72.90;;;;;;5083566;27;46506;-68
2022/11/12 01:04:35;;;;;;;114.07;17.10;;;5.30;73.90;;;;;;5086631;27;46372;-69
2022/11/12 01:07:00;;;;;;;165.13;15.50;;;5.30;74.00;;;;;;5084447;27;46517;-70
2022/11/12 01:09:26;;;;;;;77.83;13.53;;;5.30;73.90;;;;;;5089834;27;46443;-67
2022/11/12 01:11:51;;;;;;;97.17;14.83;;;5.30;74.00;;;;;;5090595;27;46370;-67
2022/11/12 01:14:17;;;;;;;103.27;14.83;;;5.30;73.90;;;;;;5089487;27;46446;-67
2022/11/12 01:16:43;;;;;;;97.37;14.10;;;5.30;73.90;;;;;;5091326;27;46676;-70
2022/11/12 01:19:10;;;;;;;85.97;13.97;;;5.30;73.90;;;;;;5086889;27;46366;-67
2022/11/12 01:21:39;;;;;;;98.80;13.77;;;5.30;73.90;;;;;;5087564;27;46370;-69
2022/11/12 01:24:05;;;;;;;98.23;13.50;;;5.30;73.90;;;;;;5086512;27;46453;-68
2022/11/12 01:26:31;;;;;;;91.07;13.30;;;5.30;73.90;;;;;;5086214;27;47662;-69
2022/11/12 01:28:57;;;;;;;108.83;13.50;;;5.30;73.90;;;;;;5086211;27;46537;-68
2022/11/12 01:31:34;;;;;;;101.53;15.30;;;5.30;73.90;;;;;;5086582;27;46464;-69
2022/11/12 01:34:06;;;;;;;112.60;13.70;;;5.30;72.90;;;;;;5085498;27;45964;-68
2022/11/12 01:36:34;;;;;;;82.87;13.53;;;5.30;73.90;;;;;;5087454;27;46768;-69
2022/11/12 01:39:00;;;;;;;63.97;13.83;;;5.30;73.90;;;;;;5086820;27;46423;-69
2022/11/12 01:41:29;;;;;;;85.87;13.30;;;5.30;73.90;;;;;;5088670;27;46459;-68
2022/11/12 01:44:18;;;;;;;83.63;13.10;;;5.30;73.90;;;;;;5088503;27;46036;-67
2022/11/12 01:47:03;;;;;;;77.27;12.67;;;5.30;73.90;;;;;;5085827;27;46414;-67
2022/11/12 01:49:34;;;;;;;55.50;11.57;;;5.30;73.90;;;;;;5087509;27;46323;-68
2022/11/12 01:52:18;;;;;;;88.43;12.83;;;5.30;72.90;;;;;;5081815;27;46608;-68
2022/11/12 01:54:48;;;;;;;62.83;12.67;;;5.30;73.90;;;;;;5085520;27;46317;-69
2022/11/12 01:57:16;;;;;;;55.27;11.70;;;5.30;72.90;;;;;;5085625;27;48279;-67
2022/11/12 01:59:46;;;;;;;64.70;11.80;;;5.30;72.90;;;;;;5087380;27;46244;-68
2022/11/12 02:02:12;;;;;;;38.60;11.57;;;5.30;72.90;;;;;;5088091;27;46415;-69
2022/11/12 02:04:39;;;;;;;50.27;11.90;;;5.20;73.90;;;;;;5083419;27;46697;-67
2022/11/12 02:07:06;;;;;;;42.77;11.27;;;5.30;73.90;;;;;;5088227;27;47757;-67
2022/11/12 02:09:33;;;;;;;39.90;10.87;;;5.30;75.10;;;;;;5084931;27;46353;-69
2022/11/12 02:11:59;;;;;;;76.57;12.13;;;5.30;72.90;;;;;;5088274;27;46465;-68
2022/11/12 02:14:25;;;;;;;74.63;12.63;;;5.30;73.90;;;;;;5084971;27;46400;-68
2022/11/12 02:16:51;;;;;;;52.63;10.83;;;5.30;73.90;;;;;;5085284;27;46981;-69
2022/11/12 02:19:17;;;;;;;41.40;10.67;;;5.20;73.90;;;;;;5082494;27;46606;-69
2022/11/12 02:21:43;;;;;;;36.20;11.03;;;5.10;72.70;;;;;;5085710;27;46727;-69
2022/11/12 02:24:11;;;;;;;46.67;10.03;;;5.10;73.80;;;;;;5085275;27;46559;-68
2022/11/12 02:26:41;;;;;;;41.47;10.83;;;5.20;73.90;;;;;;5087713;27;49183;-67
2022/11/12 02:29:07;;;;;;;63.43;10.87;;;5.20;73.80;;;;;;5086109;27;46558;-69
2022/11/12 02:31:33;;;;;;;33.70;10.13;;;5.10;72.70;;;;;;5085903;27;46425;-68
2022/11/12 02:33:59;;;;;;;38.30;9.17;;;5.10;73.80;;;;;;5091254;27;46512;-68
2022/11/12 02:36:24;;;;;;;36.30;8.93;;;5.10;73.90;;;;;;5086952;27;47386;-69
2022/11/12 02:38:50;;;;;;;35.53;9.80;;;5.00;74.20;;;;;;5087784;27;46536;-68
2022/11/12 02:41:16;;;;;;;40.97;10.00;;;5.00;73.30;;;;;;5087353;27;45788;-69
2022/11/12 02:43:43;;;;;;;24.70;8.60;;;5.00;74.20;;;;;;5088523;27;46506;-67
2022/11/12 02:46:08;;;;;;;26.73;8.73;;;5.10;74.10;;;;;;5084338;27;47457;-69
2022/11/12 02:48:34;;;;;;;40.50;9.30;;;5.10;74.00;;;;;;5087377;27;46534;-68
2022/11/12 02:51:00;;;;;;;31.90;9.77;;;5.00;73.20;;;;;;5088857;27;46404;-68
2022/11/12 02:53:25;;;;;;;25.67;9.27;;;5.00;73.90;;;;;;5086993;27;46464;-68
2022/11/12 02:55:51;;;;;;;27.30;9.03;;;5.00;73.80;;;;;;5117596;27;47765;-66
2022/11/12 02:58:17;;;;;;;23.70;9.40;;;5.10;73.80;;;;;;5085641;27;46384;-67
2022/11/12 03:00:42;;;;;;;25.13;10.43;;;5.10;73.80;;;;;;5088051;27;46516;-68
2022/11/12 03:03:08;;;;;;;31.80;10.13;;;5.10;72.70;;;;;;5083852;27;46345;-68
2022/11/12 03:05:34;;;;;;;49.03;10.17;;;5.20;73.90;;;;;;5087302;27;46998;-68
2022/11/12 03:08:03;;;;;;;84.07;13.18;;;5.20;73.90;;;;;;5086858;27;46414;-69
2022/11/12 03:10:29;;;;;;;47.27;12.00;;;5.30;74.00;;;;;;5080212;27;46436;-68
2022/11/12 03:12:57;;;;;;;76.23;12.27;;;5.30;72.90;;;;;;5087249;27;46489;-69
2022/11/12 03:15:22;;;;;;;69.30;12.77;;;5.30;73.90;;;;;;5084490;27;48200;-67
2022/11/12 03:17:48;;;;;;;46.23;12.40;;;5.30;74.00;;;;;;5086598;27;46454;-68
2022/11/12 03:20:14;;;;;;;38.03;12.00;;;5.20;73.90;;;;;;5085674;27;46500;-67
2022/11/12 03:22:40;;;;;;;46.10;11.20;;;5.10;72.70;;;;;;5085063;27;46573;-69
2022/11/12 03:25:06;;;;;;;32.73;10.90;;;5.10;73.80;;;;;;5082703;27;46829;-68
2022/11/12 03:27:32;;;;;;;51.93;12.93;;;5.10;73.70;;;;;;5085714;27;46292;-69
2022/11/12 03:29:58;;;;;;;70.13;11.63;;;5.20;73.90;;;;;;5084394;27;46369;-67
2022/11/12 03:32:24;;;;;;;57.67;10.40;;;5.20;72.80;;;;;;5086312;27;46457;-69
2022/11/12 03:34:50;;;;;;;58.70;10.50;;;5.20;73.90;;;;;;5085965;27;47339;-68
2022/11/12 03:37:15;;;;;;;44.53;10.13;;;5.20;73.90;;;;;;5085483;27;46503;-68
2022/11/12 03:39:41;;;;;;;38.73;10.60;;;5.20;73.90;;;;;;5089152;27;46499;-70
2022/11/12 03:42:07;;;;;;;44.97;10.07;;;5.30;72.90;;;;;;5086851;27;46381;-68
2022/11/12 03:44:33;;;;;;;40.80;10.13;;;5.30;73.90;;;;;;5083451;27;46282;-70
2022/11/12 03:46:58;;;;;;;32.13;10.00;;;5.30;74.00;;;;;;5085613;27;45843;-69
2022/11/12 03:49:24;;;;;;;43.97;8.63;;;5.40;73.70;;;;;;5081172;27;46519;-68
2022/11/12 03:51:50;;;;;;;24.70;8.80;;;5.40;73.40;;;;;;5085872;27;46248;-68
2022/11/12 03:54:15;;;;;;;29.03;9.17;;;5.40;73.40;;;;;;5084646;27;47255;-69
2022/11/12 03:56:41;;;;;;;25.37;8.73;;;5.40;73.20;;;;;;5084356;27;45899;-69
2022/11/12 03:59:06;;;;;;;19.93;7.63;;;5.40;73.00;;;;;;5083969;27;46421;-69
2022/11/12 04:01:32;;;;;;;35.63;8.77;;;5.40;73.00;;;;;;5084855;27;46381;-68
2022/11/12 04:03:58;;;;;;;45.07;9.73;;;5.40;71.80;;;;;;5083688;27;46775;-70
2022/11/12 04:09:08;;;;;;;34.17;8.80;;;5.50;73.00;;;;;;5090236;27;45814;-68
2022/11/12 04:11:34;;;;;;;28.13;8.87;;;5.50;71.40;;;;;;5085837;27;46453;-70
2022/11/12 04:14:00;;;;;;;27.23;9.20;;;5.50;72.40;;;;;;5086758;27;46454;-69
2022/11/12 04:22:09;;;;;;;28.57;8.27;;;5.60;71.30;;;;;;5085585;27;46390;-70
2022/11/12 04:27:20;;;;;;;31.83;8.50;;;5.60;72.20;;;;;;5085016;27;46405;-69
2022/11/12 04:32:33;;;;;;;23.20;8.70;;;5.60;71.20;;;;;;5084502;27;46342;-68
2022/11/12 04:34:59;;;;;;;16.60;8.03;;;5.60;72.20;;;;;;5084700;27;46259;-69
2022/11/12 04:37:27;;;;;;;24.97;8.20;;;5.60;72.00;;;;;;5081116;27;46735;-68
2022/11/12 04:39:53;;;;;;;14.80;7.70;;;5.60;72.00;;;;;;5085409;27;46428;-68
2022/11/12 04:45:13;;;;;;;25.90;9.17;;;5.70;72.00;;;;;;5067378;27;46458;-70
2022/11/12 04:47:42;;;;;;;37.07;8.70;;;5.70;71.90;;;;;;5088553;27;46440;-68
2022/11/12 04:50:18;;;;;;;18.97;8.77;;;5.70;71.80;;;;;;5091108;27;46590;-69
2022/11/12 04:52:43;;;;;;;20.70;8.60;;;5.60;70.80;;;;;;5088651;27;46485;-67
2022/11/12 04:55:09;;;;;;;18.17;8.27;;;5.60;73.00;;;;;;5090023;27;45965;-69
2022/11/12 04:57:36;;;;;;;12.90;7.87;;;5.60;71.80;;;;;;5088298;27;46475;-70
2022/11/12 05:00:04;;;;;;;29.27;8.80;;;5.60;71.80;;;;;;5089588;27;46431;-70
2022/11/12 05:02:30;;;;;;;12.20;7.40;;;5.60;70.70;;;;;;5085809;27;46416;-69
2022/11/12 05:04:55;;;;;;;29.13;8.20;;;5.50;71.80;;;;;;5085038;27;46305;-69
2022/11/12 05:07:21;;;;;;;22.17;7.93;;;5.50;72.00;;;;;;5086430;27;46335;-69
2022/11/12 05:09:47;;;;;;;13.70;7.50;;;5.40;72.00;;;;;;5086658;27;46444;-68
2022/11/12 05:12:13;;;;;;;16.93;7.43;;;5.40;71.10;;;;;;5086639;27;46386;-68
2022/11/12 05:14:38;;;;;;;13.77;7.70;;;5.40;72.20;;;;;;5089192;27;46248;-69
2022/11/12 05:17:04;;;;;;;22.43;8.20;;;5.40;72.10;;;;;;5088984;27;46413;-69
2022/11/12 05:19:30;;;;;;;31.30;8.33;;;5.40;72.30;;;;;;5089621;27;46529;-68
2022/11/12 05:22:04;;;;;;;37.87;8.83;;;5.40;72.10;;;;;;5085287;27;45934;-68
2022/11/12 05:24:34;;;;;;;62.97;9.50;;;5.30;72.10;;;;;;5083591;27;47684;-70
2022/11/12 05:27:00;;;;;;;31.97;9.30;;;5.30;72.00;;;;;;5089664;27;46159;-67
2022/11/12 05:29:25;;;;;;;32.63;9.27;;;5.30;72.00;;;;;;5088876;27;46251;-68
2022/11/12 05:31:51;;;;;;;93.67;11.07;;;5.30;71.90;;;;;;5089108;27;46499;-69
2022/11/12 05:34:17;;;;;;;64.33;10.27;;;5.40;71.90;;;;;;5085691;27;46361;-68
2022/11/12 05:36:42;;;;;;;73.43;10.20;;;5.40;71.70;;;;;;5085374;27;46299;-69
2022/11/12 05:39:08;;;;;;;36.90;9.87;;;5.50;71.70;;;;;;5090575;27;46356;-70
2022/11/12 05:41:33;;;;;;;54.77;12.10;;;5.40;70.70;;;;;;5086467;27;46363;-68
2022/11/12 05:43:59;;;;;;;88.00;24.13;;;5.40;71.80;;;;;;5087013;27;46323;-69
2022/11/12 05:46:24;;;;;;;55.07;13.13;;;5.60;72.10;;;;;;5089122;27;45887;-70
2022/11/12 05:48:50;;;;;;;80.77;13.83;;;5.80;70.50;;;;;;5085993;27;46522;-68
2022/11/12 05:51:16;;;;;;;75.60;12.73;;;5.80;70.60;;;;;;5088628;27;46465;-69
2022/11/12 05:53:42;;;;;;;77.63;13.73;;;5.80;71.70;;;;;;5087595;27;46318;-69
2022/11/12 05:56:08;;;;;;;50.83;13.80;;;5.80;71.70;;;;;;5086319;27;46401;-70
2022/11/12 05:58:35;;;;;;;78.73;11.17;;;5.80;71.70;;;;;;5089699;27;46404;-70
2022/11/12 06:01:01;;;;;;;63.60;11.63;;;5.90;71.10;;;;;;5088201;27;46558;-69
2022/11/12 06:03:27;;;;;;;55.87;13.30;;;5.90;71.90;;;;;;5086822;27;46721;-69
2022/11/12 06:05:52;;;;;;;76.97;12.87;;;5.80;71.90;;;;;;5084491;27;46400;-69
2022/11/12 06:08:18;;;;;;;76.67;14.23;;;5.90;72.20;;;;;;5090047;27;46549;-72
2022/11/12 06:10:49;;;;;;;61.23;10.60;;;5.80;72.30;;;;;;5085281;27;46340;-70
2022/11/12 06:13:15;;;;;;;95.97;11.07;;;5.90;71.30;;;;;;5083929;27;46452;-69
2022/11/12 06:15:41;;;;;;;52.07;10.93;;;5.80;72.60;;;;;;5088540;27;46427;-69
2022/11/12 06:18:07;;;;;;;60.03;9.77;;;5.80;72.60;;;;;;5086349;27;46883;-68
2022/11/12 06:20:32;;;;;;;54.83;11.77;;;5.80;72.80;;;;;;5085624;27;46357;-72
2022/11/12 06:22:58;;;;;;;63.10;10.33;;;5.80;71.70;;;;;;5084198;27;46359;-72
2022/11/12 06:25:24;;;;;;;41.37;10.87;;;5.80;73.00;;;;;;5088877;27;46288;-71
2022/11/12 06:27:49;;;;;;;56.93;9.33;;;5.70;72.80;;;;;;5086109;27;46324;-70
2022/11/12 06:30:16;;;;;;;40.57;12.40;;;5.70;72.90;;;;;;5089102;27;46387;-69
2022/11/12 06:32:45;;;;;;;28.83;12.00;;;5.70;71.80;;;;;;5086672;27;47755;-70
2022/11/12 06:35:11;;;;;;;32.33;9.70;;;5.80;73.00;;;;;;5087824;27;46452;-70
2022/11/12 06:37:37;;;;;;;29.73;10.30;;;5.70;73.10;;;;;;5085954;27;46453;-69
2022/11/12 06:40:03;;;;;;;48.70;9.60;;;5.70;74.30;;;;;;5087380;27;46399;-71
2022/11/12 06:42:28;;;;;;;43.57;8.43;;;5.60;72.10;;;;;;5085254;27;47678;-70
2022/11/12 06:44:54;;;;;;;38.60;7.53;;;5.60;73.00;;;;;;5086520;27;46209;-70
2022/11/12 06:47:19;;;;;;;32.20;8.90;;;5.60;72.60;;;;;;5087482;27;46610;-70
2022/11/12 06:49:45;;;;;;;51.03;8.00;;;5.60;72.50;;;;;;5088309;27;46612;-70
2022/11/12 06:52:11;;;;;;;83.47;9.30;;;5.50;71.20;;;;;;5087190;27;48434;-71
2022/11/12 06:54:36;;;;;;;27.53;8.83;;;5.50;72.30;;;;;;5081540;27;46403;-71
2022/11/12 06:57:02;;;;;;;50.63;8.60;;;5.50;72.30;;;;;;5084123;27;46488;-70
2022/11/12 06:59:27;;;;;;;27.97;9.93;;;6.00;72.60;;;;;;5088819;27;46758;-70
2022/11/12 07:01:53;;;;;;;60.27;19.17;;;5.70;71.10;;;;;;5085764;27;46510;-70
2022/11/12 07:04:18;;;;;;;67.27;22.17;;;5.60;72.00;;;;;;5088802;27;46480;-71
2022/11/12 07:06:44;;;;;;;66.83;14.10;;;5.60;70.70;;;;;;5088581;27;46377;-70
2022/11/12 07:09:10;;;;;;;59.97;11.00;;;5.60;71.60;;;;;;5087253;27;46623;-71
2022/11/12 07:11:36;;;;;;;58.43;12.40;;;5.60;70.50;;;;;;5086302;27;47435;-71
2022/11/12 07:14:05;;;;;;;35.53;11.20;;;5.70;71.50;;;;;;5087659;27;46505;-69
2022/11/12 07:16:31;;;;;;;89.23;13.87;;;5.70;71.60;;;;;;5088092;27;45913;-69
2022/11/12 07:18:57;;;;;;;149.57;11.00;;;5.80;71.40;;;;;;5092027;27;46546;-70
2022/11/12 07:21:23;;;;;;;82.53;9.10;;;5.90;70.60;;;;;;5085431;27;46590;-71
2022/11/12 07:23:48;;;;;;;99.20;12.83;;;5.90;71.70;;;;;;5087068;27;45944;-70
2022/11/12 07:26:21;;;;;;;104.20;14.80;;;5.80;71.40;;;;;;5082691;27;46460;-68
2022/11/12 07:28:49;;;;;;;75.73;8.53;;;5.80;71.10;;;;;;5084204;27;46407;-69
2022/11/12 07:31:16;;;;;;;75.03;7.57;;;5.80;69.70;;;;;;5091172;27;47177;-68
2022/11/12 07:33:43;;;;;;;42.43;8.20;;;5.80;70.50;;;;;;5084746;27;46438;-69
2022/11/12 07:36:10;;;;;;;34.00;6.97;;;6.80;70.30;;;;;;5086813;27;46389;-68
2022/11/12 07:38:38;;;;;;;75.03;7.80;;;5.90;69.50;;;;;;5086713;27;46340;-70
2022/11/12 07:41:09;;;;;;;44.07;6.13;;;6.00;69.60;;;;;;5085792;27;46642;-67
2022/11/12 07:43:36;;;;;;;25.63;6.47;;;6.00;70.50;;;;;;5085109;27;46347;-68
2022/11/12 07:46:05;;;;;;;30.80;5.97;;;6.00;70.40;;;;;;5085237;27;46391;-69
2022/11/12 07:48:31;;;;;;;47.47;7.70;;;6.10;70.30;;;;;;5082724;27;46619;-70
2022/11/12 07:51:00;;;;;;;42.20;6.10;;;6.10;69.00;;;;;;5086151;27;47259;-70
2022/11/12 07:53:26;;;;;;;33.97;5.10;;;6.10;70.00;;;;;;5080853;27;46462;-69
2022/11/12 07:55:54;;;;;;;16.43;5.40;;;6.10;69.90;;;;;;5085205;27;46514;-70
2022/11/12 07:58:19;;;;;;;25.03;5.53;;;6.10;69.70;;;;;;5082790;27;46442;-70
2022/11/12 08:00:45;;;;;;;40.57;5.50;;;6.20;69.80;;;;;;5086988;27;48407;-69
2022/11/12 08:03:10;;;;;;;75.27;4.97;;;6.30;68.90;;;;;;5086787;27;46383;-69
2022/11/12 08:05:36;;;;;;;44.70;5.60;;;6.40;70.20;;;;;;5085406;27;46513;-69
2022/11/12 08:08:01;;;;;;;36.57;5.20;;;6.50;70.20;;;;;;5090673;27;46667;-70
2022/11/12 08:10:27;;;;;;;39.57;5.77;;;6.50;70.10;;;;;;5085690;27;47413;-71
2022/11/12 08:12:55;;;;;;;33.03;5.30;;;6.60;68.80;;;;;;5087231;27;46384;-69
2022/11/12 08:15:20;;;;;;;26.20;5.50;;;6.70;69.90;;;;;;5088144;27;46519;-69
2022/11/12 08:17:46;;;;;;;50.57;5.30;;;6.70;69.70;;;;;;5085264;27;46440;-71
2022/11/12 08:20:12;;;;;;;33.20;5.77;;;6.70;69.70;;;;;;5082523;27;47205;-70
2022/11/12 08:22:37;;;;;;;26.30;5.43;;;6.80;68.90;;;;;;5085610;27;46911;-69
2022/11/12 08:25:03;;;;;;;19.53;9.20;;;6.80;69.60;;;;;;5087220;27;46479;-72
2022/11/12 08:27:29;;;;;;;28.70;5.57;;;7.00;69.40;;;;;;5085690;27;46628;-68
2022/11/12 08:29:54;;;;;;;13.00;5.67;;;7.00;69.10;;;;;;5088631;27;46515;-69
2022/11/12 08:32:20;;;;;;;5.73;4.40;;;7.00;67.70;;;;;;5088034;27;46333;-70
2022/11/12 08:34:46;;;;;;;8.03;5.30;;;7.10;68.70;;;;;;5086247;27;46386;-70
2022/11/12 08:37:12;;;;;;;25.03;5.20;;;7.20;68.30;;;;;;5120340;27;46359;-69
2022/11/12 08:39:38;;;;;;;12.17;4.30;;;7.30;67.90;;;;;;5087309;27;46412;-71
2022/11/12 08:42:03;;;;;;;16.00;5.57;;;7.40;67.00;;;;;;5084749;27;46436;-70
2022/11/12 08:44:30;;;;;;;6.20;5.07;;;7.50;68.00;;;;;;5086443;27;46417;-70
2022/11/12 08:46:55;;;;;;;10.90;5.87;;;7.60;67.60;;;;;;5088559;27;46575;-69
2022/11/12 08:49:21;;;;;;;21.53;5.20;;;7.80;67.40;;;;;;5084800;27;47607;-69
2022/11/12 08:51:47;;;;;;;20.10;4.70;;;8.00;66.10;;;;;;5088002;27;46396;-71
2022/11/12 08:54:12;;;;;;;23.57;4.03;;;8.00;67.00;;;;;;5087197;27;46511;-69
2022/11/12 08:56:38;;;;;;;15.87;4.27;;;8.20;66.70;;;;;;5085673;27;46461;-69
2022/11/12 08:59:04;;;;;;;9.67;5.30;;;8.30;66.40;;;;;;5085712;27;47353;-69
2022/11/12 09:01:30;;;;;;;8.30;4.83;;;8.40;66.40;;;;;;5084805;27;46405;-69
2022/11/12 09:03:56;;;;;;;16.03;4.47;;;8.40;66.30;;;;;;5085299;27;46441;-70
2022/11/12 09:06:22;;;;;;;40.37;4.87;;;8.40;66.20;;;;;;5084636;27;46466;-70
2022/11/12 09:08:47;;;;;;;23.23;4.37;;;8.20;67.00;;;;;;5087521;27;47192;-68
2022/11/12 09:11:13;;;;;;;7.23;4.00;;;8.00;67.00;;;;;;5085597;27;46431;-70
2022/11/12 09:13:39;;;;;;;7.20;4.50;;;8.00;67.90;;;;;;5085901;27;46641;-69
2022/11/12 09:16:06;;;;;;;6.50;4.63;;;8.10;67.60;;;;;;5079115;27;46366;-71
2022/11/12 09:18:32;;;;;;;11.70;4.33;;;8.30;66.80;;;;;;5085176;27;46350;-68
2022/11/12 09:21:00;;;;;;;9.13;6.00;;;8.70;64.40;;;;;;5084598;27;46430;-69
2022/11/12 09:23:25;;;;;;;6.17;4.40;;;8.70;65.30;;;;;;5084091;27;46391;-71
2022/11/12 09:25:53;;;;;;;7.63;4.43;;;8.90;64.50;;;;;;5081481;27;46432;-69
2022/11/12 09:28:18;;;;;;;5.60;4.73;;;9.00;64.60;;;;;;5083590;27;48182;-70
2022/11/12 09:30:46;;;;;;;19.90;5.70;;;9.20;64.40;;;;;;5086228;27;46374;-69
2022/11/12 09:33:17;;;;;;;11.30;5.07;;;9.20;63.50;;;;;;5088999;27;46334;-72
2022/11/12 09:35:44;;;;;;;18.17;4.70;;;9.20;64.80;;;;;;5086526;27;46714;-70
2022/11/12 09:38:09;;;;;;;10.80;5.60;;;9.10;64.60;;;;;;5083507;27;46487;-70
2022/11/12 09:40:50;;;;;;;19.30;5.60;;;9.10;64.60;;;;;;5116498;27;46926;-68
2022/11/12 09:43:36;;;;;;;35.43;5.70;;;9.00;63.50;;;;;;5087684;27;46517;-69
2022/11/12 09:46:21;;;;;;;16.27;5.43;;;8.80;65.50;;;;;;5087189;27;46449;-68
2022/11/12 09:49:04;;;;;;;104.63;7.57;;;8.60;66.30;;;;;;5087476;27;47041;-70
2022/11/12 09:51:33;;;;;;;31.23;6.80;;;8.70;66.00;;;;;;5088549;27;46419;-70
2022/11/12 09:54:09;;;;;;;160.67;11.13;;;8.60;66.00;;;;;;5091663;27;46465;-69
2022/11/12 09:56:35;;;;;;;41.10;9.43;;;8.70;65.80;;;;;;5081992;27;46534;-70
2022/11/12 09:59:01;;;;;;;38.27;6.73;;;8.80;65.60;;;;;;5081850;27;46424;-69
2022/11/12 10:01:44;;;;;;;36.43;7.90;;;8.80;63.90;;;;;;5086245;27;46364;-69
2022/11/12 10:04:28;;;;;;;36.60;6.97;;;8.80;64.80;;;;;;5085745;27;46510;-72
2022/11/12 10:07:05;;;;;;;67.07;7.33;;;8.80;64.80;;;;;;5087702;27;46333;-71
2022/11/12 10:09:56;;;;;;;49.87;6.40;;;8.90;64.40;;;;;;5079723;27;48269;-70
2022/11/12 10:12:46;;;;;;;85.90;8.70;;;8.70;63.80;;;;;;5058619;27;46460;-70
2022/11/12 10:18:31;;;;;;;10.10;7.17;;;8.80;64.80;;;;;;5084044;27;46491;-71
2022/11/12 10:21:34;;;;;;;10.70;7.00;;;9.10;64.60;;;;;;5081020;27;46557;-70
2022/11/12 10:24:01;;;;;;;7.90;5.80;;;9.30;63.80;;;;;;5088978;27;47386;-69
2022/11/12 10:26:30;;;;;;;10.10;6.90;;;9.50;63.50;;;;;;5078798;27;46582;-68
2022/11/12 10:29:23;;;;;;;10.97;7.10;;;9.60;62.70;;;;;;5080691;27;46471;-69
2022/11/12 10:31:49;;;;;;;11.50;7.50;;;9.70;62.50;;;;;;5079117;27;46434;-71
2022/11/12 10:34:20;;;;;;;18.53;11.00;;;9.60;61.10;;;;;;5083274;27;45888;-72
2022/11/12 10:36:53;;;;;;;14.70;9.33;;;9.80;62.10;;;;;;5085570;27;46440;-70
2022/11/12 10:39:43;;;;;;;13.87;8.73;;;9.90;61.50;;;;;;5077512;27;45911;-71
2022/11/12 10:42:12;;;;;;;13.07;8.37;;;9.50;60.10;;;;;;5082443;27;47682;-70
2022/11/12 10:44:39;;;;;;;14.50;7.90;;;10.40;59.70;;;;;;5082639;27;46602;-71
2022/11/12 10:47:25;;;;;;;11.30;7.53;;;10.50;59.40;;;;;;5083496;27;46575;-71
2022/11/12 10:50:09;;;;;;;16.93;9.90;;;10.60;59.20;;;;;;5086409;27;46849;-72
2022/11/12 10:52:35;;;;;;;19.27;11.13;;;10.40;60.00;;;;;;5076781;27;46470;-70
2022/11/12 10:55:15;;;;;;;14.50;9.60;;;10.10;61.00;;;;;;5081437;27;46645;-69
2022/11/12 10:57:41;;;;;;;34.20;18.57;;;10.00;61.40;;;;;;5086210;27;46557;-67
2022/11/12 11:00:12;;;;;;;20.33;12.60;;;10.00;61.40;;;;;;5081011;27;46340;-70
2022/11/12 11:03:00;;;;;;;24.37;12.87;;;9.70;62.60;;;;;;5087598;27;46305;-70
2022/11/12 11:05:33;;;;;;;18.37;11.57;;;9.80;62.90;;;;;;5083890;27;46427;-70
2022/11/12 11:08:00;;;;;;;22.03;11.67;;;9.80;62.90;;;;;;5082945;27;46452;-71
2022/11/12 11:10:34;;;;;;;18.50;11.17;;;9.70;63.50;;;;;;5083229;27;46427;-69
2022/11/12 11:13:19;;;;;;;21.07;10.73;;;9.80;62.00;;;;;;5086411;27;46464;-71
2022/11/12 11:16:00;;;;;;;24.43;11.97;;;9.70;63.20;;;;;;5086087;27;46382;-69
2022/11/12 11:18:28;;;;;;;18.97;11.97;;;9.60;63.30;;;;;;5082419;27;46383;-69
2022/11/12 11:21:18;;;;;;;22.03;10.87;;;9.50;62.20;;;;;;5086100;27;46299;-69
2022/11/12 11:24:11;;;;;;;16.30;9.93;;;9.50;63.10;;;;;;5081947;27;46538;-74
2022/11/12 11:26:55;;;;;;;18.97;10.63;;;9.40;63.70;;;;;;5113504;27;46396;-70
2022/11/12 11:29:23;;;;;;;23.90;10.97;;;9.30;63.70;;;;;;5080020;27;46410;-69
2022/11/12 11:32:01;;;;;;;16.43;10.47;;;9.40;62.20;;;;;;5084204;27;46464;-66
2022/11/12 11:34:30;;;;;;;23.03;14.93;;;9.40;63.30;;;;;;5083450;27;47905;-67
2022/11/12 11:37:27;;;;;;;14.80;10.10;;;9.40;63.50;;;;;;5084405;27;46451;-68
2022/11/12 11:40:11;;;;;;;13.80;9.20;;;9.40;63.30;;;;;;5080022;27;46657;-70
2022/11/12 11:42:58;;;;;;;13.70;9.50;;;9.50;63.10;;;;;;5084199;27;46522;-66
2022/11/12 11:45:51;;;;;;;29.00;10.93;;;9.60;62.90;;;;;;5114341;27;47700;-67
2022/11/12 11:48:25;;;;;;;19.63;11.57;;;9.30;63.10;;;;;;5084151;27;46681;-66
2022/11/12 11:51:06;;;;;;;22.97;14.13;;;9.20;63.70;;;;;;5084454;27;46470;-68
2022/11/12 11:53:48;;;;;;;17.63;10.93;;;9.20;64.20;;;;;;5083222;27;46486;-67
2022/11/12 11:56:30;;;;;;;16.87;11.73;;;9.20;64.40;;;;;;5082816;27;46450;-66
2022/11/12 11:59:24;;;;;;;15.80;11.10;;;9.30;63.60;;;;;;5080724;27;46639;-67
2022/11/12 12:02:19;;;;;;;20.93;13.50;;;9.40;62.70;;;;;;5088184;27;46385;-66
2022/11/12 12:04:45;;;;;;;21.73;11.70;;;9.30;63.50;;;;;;5082376;27;45841;-68
2022/11/12 12:07:20;;;;;;;16.67;11.40;;;9.20;63.90;;;;;;5081906;27;46406;-67
2022/11/12 12:10:14;;;;;;;23.53;12.40;;;9.20;64.10;;;;;;5080120;27;46290;-66
2022/11/12 12:13:04;;;;;;;16.33;11.37;;;9.20;63.50;;;;;;5081726;27;46291;-68
2022/11/12 12:15:53;;;;;;;17.10;11.83;;;9.30;65.10;;;;;;5077277;27;46728;-67
2022/11/12 12:18:33;;;;;;;23.60;9.60;;;9.20;63.90;;;;;;5081855;27;46326;-66
2022/11/12 12:21:07;;;;;;;17.67;11.47;;;9.30;62.90;;;;;;5082893;27;46393;-68
2022/11/12 12:23:35;;;;;;;21.63;11.23;;;9.20;64.00;;;;;;5084559;27;46438;-68
2022/11/12 12:26:13;;;;;;;20.40;12.67;;;9.20;64.20;;;;;;5082941;27;46086;-66
2022/11/12 12:29:14;;;;;;;28.37;12.10;;;9.20;64.70;;;;;;5082525;27;46734;-70
2022/11/12 12:31:47;;;;;;;20.90;12.97;;;9.00;63.50;;;;;;5086622;27;46491;-68
2022/11/12 12:34:32;;;;;;;27.17;12.83;;;9.00;64.70;;;;;;5088057;27;46337;-69
2022/11/12 12:37:06;;;;;;;50.63;12.40;;;9.20;64.70;;;;;;5085222;27;46423;-67
2022/11/12 12:40:12;;;;;;;20.37;13.10;;;9.00;64.60;;;;;;5085899;27;46661;-69
2022/11/12 12:42:47;;;;;;;19.07;13.03;;;8.80;64.70;;;;;;5081187;27;46368;-66
2022/11/12 12:45:21;;;;;;;39.50;11.33;;;8.90;65.50;;;;;;5085520;27;45788;-68
2022/11/12 12:47:48;;;;;;;45.53;10.43;;;8.90;65.00;;;;;;5070693;27;47285;-65
2022/11/12 12:50:17;;;;;;;50.73;13.07;;;8.80;65.40;;;;;;5082870;27;46584;-68
2022/11/12 12:53:16;;;;;;;34.23;12.13;;;8.70;65.00;;;;;;5075682;27;46305;-66
2022/11/12 12:55:47;;;;;;;18.13;9.90;;;8.70;66.20;;;;;;5080248;27;46386;-66
2022/11/12 12:58:32;;;;;;;28.83;10.67;;;8.70;66.20;;;;;;5079750;27;46612;-66
2022/11/12 13:01:02;;;;;;;14.17;10.13;;;8.80;65.90;;;;;;5082605;27;46299;-68
2022/11/12 13:03:43;;;;;;;17.33;11.70;;;8.80;66.00;;;;;;5082066;27;46405;-68
2022/11/12 13:06:14;;;;;;;32.40;11.47;;;8.90;65.60;;;;;;5085036;27;46448;-67
2022/11/12 13:08:40;;;;;;;66.17;12.60;;;8.90;65.60;;;;;;5084224;27;46501;-67
2022/11/12 13:11:09;;;;;;;94.83;14.33;;;8.60;65.90;;;;;;5087062;27;46784;-68
2022/11/12 13:13:36;;;;;;;32.67;12.03;;;8.60;67.00;;;;;;5082760;27;46315;-67